Map

Track Data

SID SEASON NUMBER BASIN SUBBASIN NAME ISO_TIME NATURE LAT LON WMO_WIND WMO_PRES WMO_AGENCY TRACK_TYPE DIST2LAND LANDFALL IFLAG USA_AGENCY USA_ATCF_ID USA_LAT USA_LON USA_RECORD USA_STATUS USA_WIND USA_PRES USA_SSHS USA_R34_NE USA_R34_SE USA_R34_SW USA_R34_NW USA_R50_NE USA_R50_SE USA_R50_SW USA_R50_NW USA_R64_NE USA_R64_SE USA_R64_SW USA_R64_NW USA_POCI USA_ROCI USA_RMW USA_EYE TOKYO_LAT TOKYO_LON TOKYO_GRADE TOKYO_WIND TOKYO_PRES TOKYO_R50_DIR TOKYO_R50_LONG TOKYO_R50_SHORT TOKYO_R30_DIR TOKYO_R30_LONG TOKYO_R30_SHORT TOKYO_LAND CMA_LAT CMA_LON CMA_CAT CMA_WIND CMA_PRES HKO_LAT HKO_LON HKO_CAT HKO_WIND HKO_PRES NEWDELHI_LAT NEWDELHI_LON NEWDELHI_GRADE NEWDELHI_WIND NEWDELHI_PRES NEWDELHI_CI NEWDELHI_DP NEWDELHI_POCI REUNION_LAT REUNION_LON REUNION_TYPE REUNION_WIND REUNION_PRES REUNION_TNUM REUNION_CI REUNION_RMW REUNION_R34_NE REUNION_R34_SE REUNION_R34_SW REUNION_R34_NW REUNION_R50_NE REUNION_R50_SE REUNION_R50_SW REUNION_R50_NW REUNION_R64_NE REUNION_R64_SE REUNION_R64_SW REUNION_R64_NW BOM_LAT BOM_LON BOM_TYPE BOM_WIND BOM_PRES BOM_TNUM BOM_CI BOM_RMW BOM_R34_NE BOM_R34_SE BOM_R34_SW BOM_R34_NW BOM_R50_NE BOM_R50_SE BOM_R50_SW BOM_R50_NW BOM_R64_NE BOM_R64_SE BOM_R64_SW BOM_R64_NW BOM_ROCI BOM_POCI BOM_EYE BOM_POS_METHOD BOM_PRES_METHOD NADI_LAT NADI_LON NADI_CAT NADI_WIND NADI_PRES WELLINGTON_LAT WELLINGTON_LON WELLINGTON_WIND WELLINGTON_PRES DS824_LAT DS824_LON DS824_STAGE DS824_WIND DS824_PRES TD9636_LAT TD9636_LON TD9636_STAGE TD9636_WIND TD9636_PRES TD9635_LAT TD9635_LON TD9635_WIND TD9635_PRES TD9635_ROCI NEUMANN_LAT NEUMANN_LON NEUMANN_CLASS NEUMANN_WIND NEUMANN_PRES MLC_LAT MLC_LON MLC_CLASS MLC_WIND MLC_PRES USA_GUST BOM_GUST BOM_GUST_PER REUNION_GUST REUNION_GUST_PER USA_SEAHGT USA_SEARAD_NE USA_SEARAD_SE USA_SEARAD_SW USA_SEARAD_NW STORM_SPEED STORM_DIR
1922039S20064 1922 13 SI MM NOT_NAMED 1922-02-08 06:00:00 NR -20.3000 64.2000 reunion main 667 667 _____O________ -1 -20.3000 64.2000 99 9.90000 2 88
1922039S20064 1922 13 SI MM NOT_NAMED 1922-02-08 09:00:00 NR -20.2968 64.2843 main 677 677 _____P________ -1 -20.2968 64.2843 99 1 89
1922039S20064 1922 13 SI MM NOT_NAMED 1922-02-08 12:00:00 NR -20.2963 64.3523 main 688 688 _____P________ -1 -20.2963 64.3523 99 1 93
1922039S20064 1922 13 SI MM NOT_NAMED 1922-02-08 15:00:00 NR -20.3012 64.3875 main 688 688 _____P________ -1 -20.3012 64.3875 99 2 127
1922039S20064 1922 13 SI MM NOT_NAMED 1922-02-08 18:00:00 NR -20.4314 64.5390 main 698 698 _____P____O___ -1 -20.3142 64.3737 99 -20.9000 65.2000 4 3 151
1922039S20064 1922 13 SI MM NOT_NAMED 1922-02-08 21:00:00 NR -20.5309 64.5203 main 698 688 _____P____P___ -1 -20.3381 64.2946 99 -20.9166 64.9717 4 2 219
1922039S20064 1922 13 SI MM NOT_NAMED 1922-02-09 00:00:00 NR -20.6159 64.3784 main 688 657 _____P____P___ -1 -20.3754 64.1336 99 -20.9365 64.7048 4 4 246
1922039S20064 1922 13 SI MM NOT_NAMED 1922-02-09 03:00:00 NR -20.6960 64.1174 main 657 616 _____P____P___ -1 -20.4286 63.8743 99 -20.9633 64.3605 4 6 255
1922039S20064 1922 13 SI MM NOT_NAMED 1922-02-09 06:00:00 TS -20.7778 63.7222 reunion main 616 565 _____O___OO___ -1 -20.5000 63.5000 99 9.90000 -21.0000 63.9000 TC 65 -21.0000 63.9000 4 9 259
1922039S20064 1922 13 SI MM NOT_NAMED 1922-02-09 09:00:00 TS -20.8647 63.1611 main 565 493 _____P___PP___ -1 -20.5903 63.0008 99 -21.0480 63.2075 TC 65 -21.0476 63.2982 4 12 261
1922039S20064 1922 13 SI MM NOT_NAMED 1922-02-09 12:00:00 TS -20.9533 62.4925 main 495 423 _____P___OP___ -1 -20.6957 62.3944 99 -21.1000 62.5000 TC 65 -21.1008 62.5851 4 13 262
1922039S20064 1922 13 SI MM NOT_NAMED 1922-02-09 15:00:00 TS -21.0407 61.7583 main 423 344 _____P___PP___ -1 -20.8115 61.7054 99 -21.1572 61.7651 TC 65 -21.1535 61.8044 4 14 264
1922039S20064 1922 13 SI MM NOT_NAMED 1922-02-09 18:00:00 TS -21.1110 60.9863 main 344 269 _____P___OO___ -1 -20.9331 60.9589 99 -21.2000 61.0000 TC 65 -21.2000 61.0000 4 15 265
1922039S20064 1922 13 SI MM NOT_NAMED 1922-02-09 21:00:00 TS -21.1572 60.2033 main 269 202 _____P___PP___ -1 -21.0563 60.1798 99 -21.1998 60.1998 TC 65 -21.2155 60.2305 4 15 266
1922039S20064 1922 13 SI MM NOT_NAMED 1922-02-10 00:00:00 TS -21.2014 59.4141 main 193 137 _____P___OP___ -1 -21.1773 59.3934 99 -21.2000 59.4000 TC 65 -21.2269 59.4488 4 15 266
1922039S20064 1922 13 SI MM NOT_NAMED 1922-02-10 03:00:00 TS -21.2591 58.6451 main 129 91 _____P___PP___ -1 -21.2928 58.6250 99 -21.2346 58.6425 TC 65 -21.2498 58.6678 4 14 265
1922039S20064 1922 13 SI MM NOT_NAMED 1922-02-10 06:00:00 TS -21.3333 57.9000 reunion main 91 90 _____O___OO___ -1 -21.4000 57.9000 99 9.90000 -21.3000 57.9000 TC 65 -21.3000 57.9000 4 14 263
1922039S20064 1922 13 SI MM NOT_NAMED 1922-02-10 09:00:00 TS -21.4207 57.2021 main 101 85 _____P___PP___ -1 -21.4819 57.3148 99 -21.3848 57.1424 TC 65 -21.3954 57.1489 4 13 261
1922039S20064 1922 13 SI MM NOT_NAMED 1922-02-10 12:00:00 TS -21.5256 56.5248 main 75 35 _____P___OP___ -1 -21.5579 56.7613 99 -21.5000 56.4000 TC 65 -21.5189 56.4131 4 13 260
1922039S20064 1922 13 SI MM NOT_NAMED 1922-02-10 15:00:00 TS -21.6460 55.8716 main 35 33 _____P___PP___ -1 -21.6301 56.2341 99 -21.6497 55.6851 TC 65 -21.6580 55.6956 4 12 259
1922039S20064 1922 13 SI MM NOT_NAMED 1922-02-10 18:00:00 TS -21.7668 55.2425 main 56 56 _____P___OO___ -1 -21.7005 55.7276 99 -21.8000 55.0000 TC 65 -21.8000 55.0000 4 12 259
1922039S20064 1922 13 SI MM NOT_NAMED 1922-02-10 21:00:00 TS -21.8625 54.6194 main 98 98 _____P___PP___ -1 -21.7710 55.2365 99 -21.8997 54.3422 TC 65 -21.9168 54.2795 4 12 260
1922039S20064 1922 13 SI MM NOT_NAMED 1922-02-11 00:00:00 TS -21.9595 54.0142 main 155 155 _____P___OP___ -1 -21.8432 54.7552 99 -22.0000 53.7000 TC 65 -22.0352 53.5873 4 11 259
1922039S20064 1922 13 SI MM NOT_NAMED 1922-02-11 03:00:00 TS -22.0742 53.4116 main 215 215 _____P___PP___ -1 -21.9190 54.2782 99 -22.1427 53.0051 TC 65 -22.1609 52.9514 4 11 257
1922039S20064 1922 13 SI MM NOT_NAMED 1922-02-11 06:00:00 TS -22.2000 52.8667 reunion main 267 267 _____O___OO___ -1 -22.0000 53.8000 99 9.90000 -22.3000 52.4000 TC 65 -22.3000 52.4000 4 10 255
1922039S20064 1922 13 SI MM NOT_NAMED 1922-02-11 09:00:00 TS -22.3159 52.4048 main 318 318 _____P___PP___ -1 -22.0587 53.2506 99 -22.4420 52.0047 TC 65 -22.4470 51.9591 4 8 253
1922039S20064 1922 13 SI MM NOT_NAMED 1922-02-11 12:00:00 TS -22.4429 51.9999 main 360 360 _____P___OP___ -1 -22.1179 52.6981 99 -22.6000 51.7000 TC 65 -22.6108 51.6017 4 8 250
1922039S20064 1922 13 SI MM NOT_NAMED 1922-02-11 15:00:00 TS -22.5874 51.5981 main 361 324 _____P___PP___ -1 -22.1831 52.1510 99 -22.7849 51.3499 TC 65 -22.7942 51.2934 4 8 247
1922039S20064 1922 13 SI MM NOT_NAMED 1922-02-11 18:00:00 TS -22.7533 51.2060 main 328 294 _____P___OO___ -1 -22.2599 51.6181 99 -23.0000 51.0000 TC 65 -23.0000 51.0000 4 8 244
1922039S20064 1922 13 SI MM NOT_NAMED 1922-02-11 21:00:00 TS -22.9419 50.8146 main 294 274 _____P___PP___ -1 -22.3541 51.1080 99 -23.2425 50.6425 TC 65 -23.2290 50.6933 4 8 245
1922039S20064 1922 13 SI MM NOT_NAMED 1922-02-12 00:00:00 TS -23.0815 50.4531 main 274 237 _____P___OP___ -1 -22.4716 50.6293 99 -23.5000 50.3000 TC 65 -23.4762 50.3714 4 7 250
1922039S20064 1922 13 SI MM NOT_NAMED 1922-02-12 03:00:00 TS -23.1811 50.1024 main 237 207 _____P___PP___ -1 -22.6182 50.1904 99 -23.7526 49.9902 TC 65 -23.7354 50.0387 4 6 259
1922039S20064 1922 13 SI MM NOT_NAMED 1922-02-12 06:00:00 TS -23.2000 49.7667 reunion main 207 175 _____O___OO___ -1 -22.8000 49.8000 99 9.90000 -24.0000 49.7000 TC 65 -24.0000 49.7000 4 6 281
1922039S20064 1922 13 SI MM NOT_NAMED 1922-02-12 09:00:00 NR -23.0661 49.4364 main 165 140 _____P________ -1 -23.0661 49.4364 99 TC 4 6 254
1922039S20064 1922 13 SI MM NOT_NAMED 1922-02-12 12:00:00 NR -23.3730 49.1154 main 142 124 _____P________ -1 -23.3730 49.1154 99 4 8 221
1922039S20064 1922 13 SI MM NOT_NAMED 1922-02-12 15:00:00 NR -23.7068 48.8370 main 116 111 _____P________ -1 -23.7068 48.8370 99 4 8 215
1922039S20064 1922 13 SI MM NOT_NAMED 1922-02-12 18:00:00 NR -24.0540 48.6017 main 112 97 _____P________ -1 -24.0540 48.6017 99 8 209
1922039S20064 1922 13 SI MM NOT_NAMED 1922-02-12 21:00:00 NR -24.4008 48.4097 main 101 97 _____P________ -1 -24.4008 48.4097 99 7 205
1922039S20064 1922 13 SI MM NOT_NAMED 1922-02-13 00:00:00 NR -24.7333 48.2617 main 103 96 _____P________ -1 -24.7333 48.2617 99 7 200
1922039S20064 1922 13 SI MM NOT_NAMED 1922-02-13 03:00:00 NR -25.0376 48.1582 main 106 101 _____P________ -1 -25.0376 48.1582 99 6 195
1922039S20064 1922 13 SI MM NOT_NAMED 1922-02-13 06:00:00 NR -25.3000 48.1000 reunion main 106 106 _____O________ -1 -25.3000 48.1000 99 9.90000 5 189
1922039S20064 1922 13 SI MM NOT_NAMED 1922-02-13 09:00:00 NR -25.5100 48.0865 main 114 114 _____P________ -1 -25.5100 48.0865 99 4 178
1922039S20064 1922 13 SI MM NOT_NAMED 1922-02-13 12:00:00 NR -25.6710 48.1133 main 127 127 _____P________ -1 -25.6710 48.1133 99 3 164
1922039S20064 1922 13 SI MM NOT_NAMED 1922-02-13 15:00:00 NR -25.7901 48.1747 main 142 142 _____P________ -1 -25.7901 48.1747 99 2 146
1922039S20064 1922 13 SI MM NOT_NAMED 1922-02-13 18:00:00 NR -25.8742 48.2651 main 156 156 _____P________ -1 -25.8742 48.2651 99 2 127
1922039S20064 1922 13 SI MM NOT_NAMED 1922-02-13 21:00:00 NR -25.9303 48.3786 main 164 164 _____P________ -1 -25.9303 48.3786 99 2 113
1922039S20064 1922 13 SI MM NOT_NAMED 1922-02-14 00:00:00 NR -25.9654 48.5094 main 179 179 _____P________ -1 -25.9654 48.5094 99 3 103
1922039S20064 1922 13 SI MM NOT_NAMED 1922-02-14 03:00:00 NR -25.9863 48.6518 main 195 195 _____P________ -1 -25.9863 48.6518 99 3 97
1922039S20064 1922 13 SI MM NOT_NAMED 1922-02-14 06:00:00 NR -26.0000 48.8000 reunion main 203 _____O________ -1 -26.0000 48.8000 99 9.90000 3 96

About IBTrACS Database

This database is a web-friendly format of International Best Track Archive for Climate Stewardship (IBTrACS), a global best track data archive curated by NOAA dating back to 1842.

Updated: 2021-10-08